Mendon, Utah
Current Conditions -  °F | °C
As of 7:51 AM on Sunday 23 Nov 2014 (Local Time) from KLGU Reporting Station
Overcast Overcast  
Wind Chill: 31°   Ceiling: 4000
Heat Index: 31°   Visibility: 10mi
Dew Point: 29°   Wind: 3mph
Humidity: 92%   Direction: 160°SSE
Pressure: 30.13"   Gusts: NA
Location:  41.71°N, 111.98°W
Report Text: KLGU 231451Z AUTO 16003KT 10SM SCT029 BKN040 OVC055 M01/M02 A3013 RMK AO2 SNE11 SLP215 P0000 60001 T10061017 53031
Loading
Personal Weather Stations






























Interactive Weather Map New forecast layout! Learn more

10-Day Weather Forecast

Advertisements
Track Severe Weather on mobile